Time;durP1;ratioP1;P1;durP2;ratioP2;P2;SDS_P1;SDS_P2;PMS_P1;PMS_P2;Temp;Humidity;BMP_temperature;BMP_pressure;BME280_temperature;BME280_humidity;BME280_pressure;Samples;Min_cycle;Max_cycle;Signal;HPM_P1;HPM_P2
2021/12/08 00:01:04;;;;;;;7.07;5.03;;;19.50;46.40;;;;;;2253683;63;20169;-65
2021/12/08 00:03:31;;;;;;;7.78;4.57;;;19.50;46.40;;;;;;2253841;63;20188;-65
2021/12/08 00:05:58;;;;;;;6.80;4.93;;;19.50;46.40;;;;;;2253857;63;20588;-65
2021/12/08 00:08:27;;;;;;;8.35;5.10;;;19.50;46.40;;;;;;2253947;63;20173;-65
2021/12/08 00:13:28;;;;;;;8.50;4.75;;;19.50;46.40;;;;;;2253840;63;20643;-65
2021/12/08 00:16:00;;;;;;;7.88;5.35;;;19.40;46.30;;;;;;2253859;63;20208;-65
2021/12/08 00:18:29;;;;;;;7.18;5.35;;;19.40;46.40;;;;;;2253846;63;20283;-65
2021/12/08 00:20:59;;;;;;;6.68;4.72;;;19.40;46.40;;;;;;2253850;63;20190;-65
2021/12/08 00:23:27;;;;;;;6.90;4.88;;;19.40;46.40;;;;;;2253845;63;20202;-65
2021/12/08 00:25:53;;;;;;;7.10;4.75;;;19.40;46.40;;;;;;2253754;63;20212;-65
2021/12/08 00:28:21;;;;;;;5.75;4.53;;;19.40;46.40;;;;;;2253810;63;20267;-65
2021/12/08 00:30:53;;;;;;;7.78;4.75;;;19.30;46.30;;;;;;2253837;63;20237;-65
2021/12/08 00:33:20;;;;;;;9.65;4.82;;;19.30;46.40;;;;;;2253769;63;20169;-65
2021/12/08 00:35:48;;;;;;;5.70;4.35;;;19.30;47.00;;;;;;2253743;63;20266;-65
2021/12/08 00:38:17;;;;;;;8.10;4.97;;;19.30;46.30;;;;;;2253727;63;20161;-65
2021/12/08 00:40:44;;;;;;;6.43;4.65;;;19.30;46.40;;;;;;2253702;63;20660;-65
2021/12/08 00:43:10;;;;;;;7.95;4.63;;;19.30;46.30;;;;;;2253624;63;20149;-65
2021/12/08 00:45:36;;;;;;;7.28;4.70;;;19.20;46.30;;;;;;2253611;63;20830;-65
2021/12/08 00:48:02;;;;;;;7.63;5.03;;;19.20;46.30;;;;;;2253767;63;20293;-65
2021/12/08 00:50:31;;;;;;;5.38;4.35;;;19.20;46.30;;;;;;2253676;63;20226;-65
2021/12/08 00:52:58;;;;;;;7.05;4.72;;;19.20;46.30;;;;;;2253701;63;20279;-65
2021/12/08 00:55:26;;;;;;;7.40;5.18;;;19.20;46.30;;;;;;2253647;63;20410;-65
2021/12/08 00:57:52;;;;;;;6.43;4.53;;;19.20;46.30;;;;;;2253671;63;20271;-65
2021/12/08 01:00:26;;;;;;;5.82;4.35;;;19.20;46.30;;;;;;2253604;63;20206;-65
2021/12/08 01:02:52;;;;;;;6.97;4.72;;;19.20;46.20;;;;;;2253705;63;20177;-65
2021/12/08 01:05:22;;;;;;;6.32;4.70;;;19.20;46.20;;;;;;2253646;63;20635;-66
2021/12/08 01:07:48;;;;;;;7.90;4.90;;;19.20;46.20;;;;;;2253480;63;20226;-65
2021/12/08 01:10:19;;;;;;;6.30;4.75;;;19.20;46.20;;;;;;2253532;63;20181;-65
2021/12/08 01:12:46;;;;;;;5.55;4.40;;;19.20;46.20;;;;;;2253749;63;20188;-65
2021/12/08 01:15:13;;;;;;;6.30;4.25;;;19.20;46.20;;;;;;2254841;63;20655;-65
2021/12/08 01:17:40;;;;;;;5.65;4.60;;;19.20;46.20;;;;;;2254865;63;20571;-65
2021/12/08 01:20:09;;;;;;;6.43;4.55;;;19.10;46.10;;;;;;2254793;63;20205;-65
2021/12/08 01:22:35;;;;;;;5.93;4.20;;;19.10;46.10;;;;;;2254791;63;20172;-65
2021/12/08 01:25:01;;;;;;;7.20;4.53;;;19.10;46.10;;;;;;2254824;63;20586;-65
2021/12/08 01:27:27;;;;;;;7.45;4.15;;;19.10;46.10;;;;;;2254704;63;20174;-65
2021/12/08 01:29:52;;;;;;;6.32;4.30;;;19.10;46.10;;;;;;2254761;63;20737;-65
2021/12/08 01:32:20;;;;;;;6.60;4.60;;;19.10;46.10;;;;;;2254770;63;20689;-65
2021/12/08 01:34:46;;;;;;;5.65;4.13;;;19.10;46.10;;;;;;2254714;63;20276;-65
2021/12/08 01:37:11;;;;;;;6.18;4.68;;;19.10;46.00;;;;;;2254717;63;20245;-65
2021/12/08 01:39:37;;;;;;;5.82;4.15;;;19.20;46.10;;;;;;2254688;63;20314;-65
2021/12/08 01:42:05;;;;;;;6.00;4.28;;;19.10;46.00;;;;;;2254644;63;20169;-66
2021/12/08 01:47:15;;;;;;;5.97;4.40;;;19.10;46.00;;;;;;2254611;63;20652;-65
2021/12/08 01:49:41;;;;;;;5.32;4.30;;;19.10;46.00;;;;;;2254672;63;20672;-65
2021/12/08 01:52:07;;;;;;;5.70;3.83;;;19.10;46.00;;;;;;2254645;63;20258;-65
2021/12/08 01:54:33;;;;;;;6.30;4.20;;;19.10;46.00;;;;;;2254621;63;20677;-65
2021/12/08 01:57:00;;;;;;;5.10;4.10;;;19.10;46.00;;;;;;2254624;63;20169;-65
2021/12/08 01:59:26;;;;;;;6.72;4.00;;;19.10;46.00;;;;;;2254590;63;20193;-65
2021/12/08 02:01:52;;;;;;;5.20;3.92;;;19.00;45.90;;;;;;2254649;63;20200;-65
2021/12/08 02:04:17;;;;;;;7.18;4.20;;;19.00;45.90;;;;;;2254572;63;20403;-65
2021/12/08 02:06:45;;;;;;;5.57;4.05;;;19.10;45.90;;;;;;2254436;63;20330;-65
2021/12/08 02:09:14;;;;;;;4.93;3.78;;;19.00;45.90;;;;;;2254560;63;20419;-65
2021/12/08 02:11:45;;;;;;;4.55;3.67;;;19.00;45.90;;;;;;2254471;63;20253;-65
2021/12/08 02:14:11;;;;;;;5.75;4.25;;;19.10;45.90;;;;;;2254500;63;20190;-65
2021/12/08 02:16:38;;;;;;;6.32;4.38;;;19.00;45.90;;;;;;2254532;63;20199;-65
2021/12/08 02:19:04;;;;;;;5.95;4.53;;;19.10;45.90;;;;;;2254512;63;20224;-65
2021/12/08 02:21:36;;;;;;;5.78;3.92;;;19.00;45.80;;;;;;2254544;63;20453;-65
2021/12/08 02:24:11;;;;;;;5.93;3.78;;;19.00;45.90;;;;;;2254333;63;20643;-65
2021/12/08 02:26:39;;;;;;;5.82;4.10;;;19.00;45.90;;;;;;2254517;63;20165;-65
2021/12/08 02:29:09;;;;;;;6.30;4.38;;;19.00;45.90;;;;;;2254428;63;20198;-66
2021/12/08 02:31:52;;;;;;;5.40;4.20;;;19.00;45.80;;;;;;2254499;63;20172;-65
2021/12/08 02:48:03;;;;;;;6.13;4.57;;;19.00;45.80;;;;;;2254480;63;20177;-65
2021/12/08 02:50:36;;;;;;;6.43;4.55;;;19.00;45.90;;;;;;2254329;63;20164;-65
2021/12/08 02:53:03;;;;;;;4.57;3.58;;;19.00;45.80;;;;;;2254386;63;20285;-65
2021/12/08 02:55:30;;;;;;;6.65;4.20;;;18.90;45.80;;;;;;2254346;63;20202;-65
2021/12/08 02:57:57;;;;;;;6.15;4.05;;;19.00;45.80;;;;;;2254263;63;20212;-65
2021/12/08 03:00:27;;;;;;;6.25;4.00;;;18.90;45.80;;;;;;2254327;63;20210;-65
2021/12/08 03:03:00;;;;;;;5.28;3.88;;;19.00;45.80;;;;;;2254369;63;20330;-65
2021/12/08 03:05:27;;;;;;;5.38;3.95;;;18.90;45.80;;;;;;2254184;63;20326;-65
2021/12/08 03:07:53;;;;;;;5.97;4.25;;;19.00;45.80;;;;;;2254206;63;20198;-65
2021/12/08 03:10:23;;;;;;;5.00;3.78;;;18.90;45.80;;;;;;2254183;63;20194;-66
2021/12/08 03:12:49;;;;;;;4.97;3.75;;;18.90;45.80;;;;;;2254162;63;20187;-65
2021/12/08 03:15:16;;;;;;;5.05;3.95;;;19.00;45.90;;;;;;2254228;63;20164;-65
2021/12/08 03:17:42;;;;;;;4.60;3.63;;;18.80;45.80;;;;;;2254179;63;20278;-65
2021/12/08 03:20:14;;;;;;;5.53;3.70;;;18.90;45.80;;;;;;2254177;63;20177;-65
2021/12/08 03:22:44;;;;;;;4.38;3.65;;;18.90;45.80;;;;;;2254223;63;20188;-65
2021/12/08 03:25:14;;;;;;;4.88;3.78;;;18.80;45.80;;;;;;2254161;63;20651;-65
2021/12/08 03:27:49;;;;;;;5.05;3.63;;;18.90;45.90;;;;;;2254079;63;20342;-65
2021/12/08 03:30:20;;;;;;;4.13;3.35;;;18.90;45.90;;;;;;2254158;63;20177;-65
2021/12/08 03:32:46;;;;;;;5.45;3.90;;;18.90;45.90;;;;;;2254111;63;20219;-63
2021/12/08 03:35:17;;;;;;;4.00;3.03;;;18.80;45.80;;;;;;2254042;63;20200;-63
2021/12/08 03:37:45;;;;;;;4.97;3.60;;;18.90;45.80;;;;;;2253593;63;20180;-63
2021/12/08 03:40:14;;;;;;;4.00;3.42;;;18.90;45.90;;;;;;2254046;63;20381;-65
2021/12/08 03:42:42;;;;;;;4.78;3.50;;;18.90;45.90;;;;;;2254012;63;20240;-65
2021/12/08 03:45:13;;;;;;;5.15;3.58;;;18.90;45.90;;;;;;2254000;63;20193;-66
2021/12/08 03:47:42;;;;;;;4.75;3.45;;;18.90;45.90;;;;;;2253987;63;20314;-65
2021/12/08 03:50:13;;;;;;;5.85;3.88;;;18.80;45.90;;;;;;2254038;63;20186;-66
2021/12/08 03:52:39;;;;;;;6.03;4.00;;;18.90;45.90;;;;;;2254055;63;20173;-65
2021/12/08 03:55:08;;;;;;;4.43;3.05;;;18.80;45.90;;;;;;2253983;63;20640;-66
2021/12/08 03:57:34;;;;;;;5.25;3.13;;;18.80;45.90;;;;;;2253972;63;20185;-65
2021/12/08 04:00:00;;;;;;;5.55;3.45;;;18.70;45.80;;;;;;2253994;63;20204;-65
2021/12/08 04:02:26;;;;;;;3.63;3.00;;;18.80;45.90;;;;;;2253984;63;20216;-65
2021/12/08 04:04:52;;;;;;;5.10;3.30;;;18.80;45.90;;;;;;2253899;63;20169;-65
2021/12/08 04:07:19;;;;;;;4.40;3.40;;;18.80;45.90;;;;;;2253836;63;20172;-65
2021/12/08 04:09:49;;;;;;;3.88;3.00;;;18.70;45.80;;;;;;2253859;63;20173;-65
2021/12/08 04:12:18;;;;;;;4.82;3.45;;;18.80;45.90;;;;;;2253852;63;20290;-66
2021/12/08 04:14:53;;;;;;;4.03;3.40;;;18.80;45.90;;;;;;2253811;63;20173;-65
2021/12/08 04:17:36;;;;;;;4.87;3.40;;;18.80;45.90;;;;;;2253957;63;20188;-65
2021/12/08 04:20:15;;;;;;;4.80;3.00;;;18.80;45.90;;;;;;2253798;63;20262;-65
2021/12/08 04:22:44;;;;;;;4.80;3.00;;;18.70;45.90;;;;;;2253871;63;20181;-66
2021/12/08 04:25:15;;;;;;;4.35;2.95;;;18.80;45.90;;;;;;2253840;63;20191;-65
2021/12/08 04:27:43;;;;;;;5.60;3.40;;;18.70;45.90;;;;;;2253767;63;20177;-65
2021/12/08 04:30:16;;;;;;;5.22;3.22;;;18.80;45.90;;;;;;2253807;63;20173;-65
2021/12/08 04:32:42;;;;;;;3.30;2.95;;;18.70;45.90;;;;;;2253832;63;20576;-65
2021/12/08 04:35:10;;;;;;;4.35;3.22;;;18.70;45.90;;;;;;2253722;63;20682;-65
2021/12/08 04:37:44;;;;;;;3.78;3.05;;;18.60;45.90;;;;;;2253797;63;20164;-65
2021/12/08 04:40:31;;;;;;;5.10;3.42;;;18.70;45.90;;;;;;2253755;63;20197;-65
2021/12/08 04:43:12;;;;;;;4.18;3.30;;;18.70;45.90;;;;;;2253676;63;20293;-65
2021/12/08 04:46:09;;;;;;;4.38;3.17;;;18.70;45.90;;;;;;2253682;63;20197;-65
2021/12/08 04:51:41;;;;;;;5.75;2.97;;;18.70;46.00;;;;;;2254967;63;20186;-65
2021/12/08 05:08:40;;;;;;;4.77;3.30;;;18.70;46.00;;;;;;2214732;64;20194;-65
2021/12/08 05:11:14;;;;;;;3.40;2.63;;;18.70;46.00;;;;;;2214564;64;20175;-65
2021/12/08 05:13:42;;;;;;;4.07;2.65;;;18.70;46.00;;;;;;2214538;64;20247;-65
2021/12/08 05:16:10;;;;;;;2.67;2.40;;;18.70;46.00;;;;;;2214592;64;20180;-65
2021/12/08 05:18:40;;;;;;;3.63;2.80;;;18.70;46.00;;;;;;2214595;64;20201;-64
2021/12/08 05:21:18;;;;;;;4.25;3.20;;;18.70;46.00;;;;;;2214607;64;20305;-65
2021/12/08 05:23:50;;;;;;;3.42;2.70;;;18.70;46.00;;;;;;2214526;64;20184;-65
2021/12/08 05:26:28;;;;;;;3.47;2.58;;;18.70;46.10;;;;;;2214560;64;20227;-65
2021/12/08 05:28:59;;;;;;;2.88;2.40;;;18.70;46.10;;;;;;2214510;64;20721;-65
2021/12/08 05:31:29;;;;;;;3.45;2.83;;;18.70;46.10;;;;;;2214456;64;20197;-65
2021/12/08 05:33:55;;;;;;;3.60;2.92;;;18.70;46.10;;;;;;2214508;64;20647;-65
2021/12/08 05:36:23;;;;;;;3.33;2.60;;;18.70;46.10;;;;;;2228893;63;20330;-65
2021/12/08 05:38:53;;;;;;;3.60;2.65;;;18.80;46.10;;;;;;2254765;63;20558;-65
2021/12/08 05:41:30;;;;;;;3.58;2.40;;;18.80;46.00;;;;;;2254660;63;20168;-65
2021/12/08 05:43:57;;;;;;;3.47;2.47;;;18.90;46.00;;;;;;2254663;63;20745;-66
2021/12/08 05:46:26;;;;;;;3.65;2.35;;;19.00;46.00;;;;;;2254556;63;20231;-65
2021/12/08 05:48:53;;;;;;;2.65;2.30;;;19.10;45.90;;;;;;2254722;63;20181;-65
2021/12/08 05:51:27;;;;;;;2.90;2.45;;;19.10;45.80;;;;;;2254677;63;20363;-65
2021/12/08 05:53:57;;;;;;;3.30;2.20;;;19.30;45.80;;;;;;2254676;63;20357;-65
2021/12/08 05:56:23;;;;;;;2.40;2.10;;;19.30;45.70;;;;;;2254603;63;20639;-65
2021/12/08 05:58:52;;;;;;;4.20;2.40;;;19.50;45.70;;;;;;2254422;63;20245;-65
2021/12/08 06:01:20;;;;;;;3.80;2.45;;;19.60;45.60;;;;;;2254370;63;20347;-65
2021/12/08 06:03:49;;;;;;;3.03;2.25;;;19.70;45.40;;;;;;2254615;63;20157;-65
2021/12/08 06:06:17;;;;;;;2.42;2.10;;;19.80;45.30;;;;;;2254532;63;20603;-65
2021/12/08 06:08:44;;;;;;;3.72;2.53;;;19.90;45.20;;;;;;2254569;63;20648;-65
2021/12/08 06:11:11;;;;;;;3.22;2.40;;;20.00;45.10;;;;;;2254476;63;20567;-65
2021/12/08 06:13:39;;;;;;;2.90;2.10;;;20.10;45.10;;;;;;2254483;63;20673;-66
2021/12/08 06:16:05;;;;;;;2.70;2.00;;;20.10;44.90;;;;;;2254603;63;20177;-65
2021/12/08 06:18:37;;;;;;;3.03;2.15;;;20.20;44.90;;;;;;2254622;63;20172;-66
2021/12/08 06:21:08;;;;;;;3.20;2.08;;;20.20;44.90;;;;;;2254597;63;20188;-65
2021/12/08 06:23:34;;;;;;;1.92;1.73;;;20.30;44.80;;;;;;2254551;63;20231;-66
2021/12/08 06:26:01;;;;;;;2.67;2.00;;;20.30;44.80;;;;;;2254425;63;20318;-66
2021/12/08 06:28:27;;;;;;;3.10;2.10;;;20.30;44.80;;;;;;2254548;63;20184;-65
2021/12/08 06:30:53;;;;;;;2.10;1.77;;;20.30;44.70;;;;;;2254520;63;20195;-65
2021/12/08 06:33:20;;;;;;;4.05;1.67;;;20.30;44.70;;;;;;2254474;63;20188;-65
2021/12/08 06:35:52;;;;;;;2.22;1.85;;;20.20;44.70;;;;;;2254435;63;20226;-65
2021/12/08 06:38:22;;;;;;;2.17;1.93;;;20.20;44.70;;;;;;2254431;63;20189;-65
2021/12/08 06:40:59;;;;;;;2.38;1.50;;;20.20;44.80;;;;;;2254439;63;20190;-65
2021/12/08 06:43:29;;;;;;;2.40;1.70;;;20.20;44.80;;;;;;2254388;63;20204;-65
2021/12/08 06:45:57;;;;;;;2.97;1.77;;;20.20;44.80;;;;;;2254370;63;20326;-65
2021/12/08 06:48:32;;;;;;;3.38;2.08;;;20.20;44.80;;;;;;2254440;63;20287;-65
2021/12/08 06:51:07;;;;;;;2.45;1.63;;;20.20;44.80;;;;;;2254346;63;20189;-65
2021/12/08 06:53:35;;;;;;;1.92;1.70;;;20.20;44.70;;;;;;2254384;63;20172;-65
2021/12/08 06:56:19;;;;;;;2.85;2.00;;;20.30;44.80;;;;;;2254379;63;20193;-65
2021/12/08 06:58:48;;;;;;;2.05;1.45;;;20.30;45.30;;;;;;2254359;63;20194;-65
2021/12/08 07:01:33;;;;;;;2.90;1.70;;;20.30;44.60;;;;;;2254345;63;20676;-65
2021/12/08 07:07:01;;;;;;;2.47;1.77;;;20.40;44.60;;;;;;2254174;63;20208;-65
2021/12/08 07:09:52;;;;;;;1.83;1.50;;;20.40;44.60;;;;;;2254205;63;20301;-65
2021/12/08 07:12:21;;;;;;;2.15;1.70;;;20.40;44.50;;;;;;2254159;63;20647;-64
2021/12/08 07:15:00;;;;;;;1.83;1.50;;;20.40;44.50;;;;;;2254184;63;20200;-64
2021/12/08 07:17:32;;;;;;;2.38;1.70;;;20.40;44.50;;;;;;2254285;63;20184;-65
2021/12/08 07:20:14;;;;;;;2.40;1.60;;;20.40;44.50;;;;;;2254230;63;20161;-65
2021/12/08 07:22:43;;;;;;;2.30;1.50;;;20.40;44.50;;;;;;2254203;63;20341;-65
2021/12/08 07:25:12;;;;;;;2.30;1.55;;;20.40;44.50;;;;;;2254279;63;20678;-65
2021/12/08 07:27:39;;;;;;;2.42;1.60;;;20.40;44.50;;;;;;2254197;63;20168;-65
2021/12/08 07:30:13;;;;;;;2.55;1.48;;;20.50;44.50;;;;;;2254222;63;20255;-65
2021/12/08 07:32:41;;;;;;;1.85;1.48;;;20.50;44.50;;;;;;2254207;63;20198;-65
2021/12/08 07:35:17;;;;;;;1.95;1.30;;;20.50;44.50;;;;;;2254144;63;20294;-65
2021/12/08 07:37:45;;;;;;;3.13;1.73;;;20.50;44.50;;;;;;2254183;63;20198;-65
2021/12/08 07:40:34;;;;;;;2.30;1.60;;;20.50;44.50;;;;;;2254076;63;20176;-65
2021/12/08 07:43:07;;;;;;;1.92;1.50;;;20.40;44.50;;;;;;2254202;63;20186;-65
2021/12/08 07:45:39;;;;;;;1.33;1.23;;;20.40;44.50;;;;;;2254009;63;20200;-65
2021/12/08 07:48:08;;;;;;;1.92;1.48;;;20.30;44.50;;;;;;2254066;63;20213;-64
2021/12/08 07:50:39;;;;;;;3.75;1.65;;;20.40;44.60;;;;;;2254685;63;20176;-65
2021/12/08 07:53:07;;;;;;;3.30;1.50;;;20.40;44.60;;;;;;2254143;63;20279;-66
2021/12/08 07:55:40;;;;;;;1.73;1.30;;;20.40;44.70;;;;;;2254182;63;20194;-65
2021/12/08 07:58:07;;;;;;;2.28;1.52;;;20.40;44.70;;;;;;2254096;63;20212;-65
2021/12/08 08:00:42;;;;;;;3.70;1.25;;;20.40;44.80;;;;;;2253984;63;20164;-66
2021/12/08 08:03:11;;;;;;;2.63;1.60;;;20.40;44.80;;;;;;2254119;63;20164;-65
2021/12/08 08:05:37;;;;;;;3.60;1.23;;;20.40;44.90;;;;;;2253902;63;20246;-65
2021/12/08 08:08:06;;;;;;;1.65;1.27;;;20.40;45.00;;;;;;2254001;63;20579;-65
2021/12/08 08:10:40;;;;;;;2.35;1.45;;;20.40;45.00;;;;;;2253960;63;20201;-65
2021/12/08 08:13:08;;;;;;;5.10;1.70;;;20.40;45.00;;;;;;2253918;63;20157;-65
2021/12/08 08:15:40;;;;;;;5.05;1.80;;;20.50;45.10;;;;;;2253881;63;20370;-65
2021/12/08 08:18:10;;;;;;;4.93;2.17;;;20.50;45.10;;;;;;2253919;63;20339;-65
2021/12/08 08:20:42;;;;;;;4.20;1.55;;;20.50;45.10;;;;;;2253914;63;20688;-65
2021/12/08 08:23:08;;;;;;;3.33;1.55;;;20.50;45.20;;;;;;2254388;63;20164;-65
2021/12/08 08:25:41;;;;;;;3.90;1.77;;;20.50;45.20;;;;;;2255204;63;20286;-65
2021/12/08 08:28:08;;;;;;;2.20;1.25;;;20.40;45.20;;;;;;2255150;63;20333;-65
2021/12/08 08:30:40;;;;;;;5.05;1.73;;;20.40;45.30;;;;;;2255171;63;20192;-65
2021/12/08 08:33:06;;;;;;;3.78;1.42;;;20.40;45.40;;;;;;2255157;63;20157;-65
2021/12/08 08:35:39;;;;;;;3.05;1.80;;;20.30;45.40;;;;;;2255210;63;20188;-65
2021/12/08 08:38:10;;;;;;;3.40;1.92;;;20.20;45.40;;;;;;2255162;63;20288;-65
2021/12/08 08:40:41;;;;;;;3.10;1.70;;;20.20;45.50;;;;;;2255079;63;20295;-65
2021/12/08 08:43:10;;;;;;;3.90;2.10;;;20.20;45.60;;;;;;2255085;63;20327;-66
2021/12/08 08:45:42;;;;;;;7.45;2.17;;;20.10;45.60;;;;;;2255031;63;20366;-65
2021/12/08 08:48:11;;;;;;;6.97;2.47;;;20.10;45.60;;;;;;2255037;63;20836;-65
2021/12/08 08:50:52;;;;;;;8.30;2.67;;;20.00;45.60;;;;;;2255051;63;20241;-65
2021/12/08 08:53:20;;;;;;;6.75;2.42;;;20.00;45.70;;;;;;2255128;63;20156;-65
2021/12/08 08:56:07;;;;;;;6.07;2.20;;;20.00;45.80;;;;;;2255075;63;20231;-65
2021/12/08 08:58:36;;;;;;;4.88;2.30;;;20.00;45.70;;;;;;2255002;63;20194;-65
2021/12/08 09:01:13;;;;;;;4.70;2.30;;;19.90;45.80;;;;;;2255076;63;20173;-66
2021/12/08 09:03:41;;;;;;;5.53;2.70;;;19.90;45.80;;;;;;2254978;63;20757;-65
2021/12/08 09:06:15;;;;;;;10.75;2.92;;;19.80;45.80;;;;;;2254981;63;20235;-65
2021/12/08 09:08:42;;;;;;;6.45;2.55;;;19.80;45.90;;;;;;2254932;63;20697;-65
2021/12/08 09:11:15;;;;;;;8.45;2.67;;;19.80;45.90;;;;;;2254912;63;20218;-65
2021/12/08 09:14:09;;;;;;;6.47;2.35;;;19.80;45.90;;;;;;2254867;63;20623;-64
2021/12/08 09:17:05;;;;;;;5.25;2.33;;;19.80;46.00;;;;;;2254890;63;20253;-65
2021/12/08 09:19:41;;;;;;;2.80;1.63;;;19.80;46.00;;;;;;2254356;63;20201;-65
2021/12/08 09:22:16;;;;;;;4.60;2.25;;;19.70;46.10;;;;;;2254867;63;20164;-65
2021/12/08 09:25:14;;;;;;;3.40;1.88;;;19.70;46.10;;;;;;2254911;63;20290;-65
2021/12/08 09:27:45;;;;;;;4.57;2.15;;;19.70;46.10;;;;;;2214553;64;20168;-65
2021/12/08 09:30:26;;;;;;;5.13;2.00;;;19.70;46.10;;;;;;2214522;64;20655;-64
2021/12/08 09:33:00;;;;;;;5.15;2.10;;;19.70;46.20;;;;;;2214534;64;20781;-65
2021/12/08 09:35:33;;;;;;;4.70;2.23;;;19.60;46.10;;;;;;2214602;64;20520;-65
2021/12/08 09:38:17;;;;;;;3.20;2.03;;;19.60;46.20;;;;;;2214469;64;20563;-64
2021/12/08 09:40:54;;;;;;;3.13;1.90;;;19.60;46.20;;;;;;2214529;64;20464;-65
2021/12/08 09:43:26;;;;;;;4.50;2.50;;;19.60;46.20;;;;;;2214475;64;20216;-64
2021/12/08 09:46:05;;;;;;;4.70;2.00;;;19.60;46.20;;;;;;2214345;64;20192;-66
2021/12/08 09:48:32;;;;;;;5.97;2.35;;;19.60;46.20;;;;;;2214374;64;20168;-65
2021/12/08 09:50:59;;;;;;;6.63;2.58;;;19.50;46.20;;;;;;2214421;64;20237;-65
2021/12/08 09:53:26;;;;;;;5.10;1.98;;;19.60;46.40;;;;;;2214453;64;20264;-65
2021/12/08 09:55:53;;;;;;;4.80;1.83;;;19.50;46.40;;;;;;2214386;64;20192;-64
2021/12/08 09:58:19;;;;;;;4.30;2.20;;;19.50;46.40;;;;;;2214302;64;20664;-65
2021/12/08 10:00:48;;;;;;;5.78;2.30;;;19.50;46.50;;;;;;2214401;64;20230;-64
2021/12/08 10:03:16;;;;;;;3.63;2.42;;;19.50;46.60;;;;;;2217924;64;20178;-64
2021/12/08 10:05:43;;;;;;;5.53;1.85;;;19.50;46.60;;;;;;2246701;63;20191;-66
2021/12/08 10:08:11;;;;;;;5.15;1.95;;;19.50;46.70;;;;;;2246696;63;20188;-64
2021/12/08 10:10:41;;;;;;;4.60;1.80;;;19.50;46.80;;;;;;2246618;63;20190;-64
2021/12/08 10:13:07;;;;;;;5.43;2.00;;;19.50;46.90;;;;;;2246747;63;20202;-64
2021/12/08 10:15:34;;;;;;;5.90;1.95;;;19.50;47.00;;;;;;2246659;63;20173;-65
2021/12/08 10:18:00;;;;;;;6.97;1.95;;;19.40;47.00;;;;;;2246622;63;20596;-65
2021/12/08 10:20:54;;;;;;;4.00;1.83;;;19.40;47.10;;;;;;2246722;63;20703;-64
2021/12/08 10:23:28;;;;;;;7.55;1.85;;;19.40;47.20;;;;;;2244654;63;20292;-65
2021/12/08 10:26:03;;;;;;;5.75;1.90;;;19.40;47.30;;;;;;2246655;63;20310;-64
2021/12/08 10:28:32;;;;;;;4.07;1.90;;;19.40;47.40;;;;;;2246591;63;20326;-65
2021/12/08 10:31:15;;;;;;;4.38;1.88;;;19.40;47.40;;;;;;2246567;63;20342;-64
2021/12/08 10:33:55;;;;;;;4.05;2.15;;;19.40;47.50;;;;;;2246592;63;20189;-65
2021/12/08 10:36:45;;;;;;;4.63;1.90;;;19.40;47.50;;;;;;2246413;63;20169;-65
2021/12/08 10:39:25;;;;;;;3.67;1.52;;;19.40;47.60;;;;;;2246572;63;20188;-65
2021/12/08 10:41:56;;;;;;;7.32;2.22;;;19.30;47.60;;;;;;2246581;63;20664;-65
2021/12/08 10:45:06;;;;;;;3.25;1.83;;;19.30;47.60;;;;;;2246485;63;20203;-66
2021/12/08 10:47:39;;;;;;;3.47;1.67;;;19.30;47.50;;;;;;2252186;63;20176;-64
2021/12/08 10:56:09;;;;;;;4.47;1.50;;;19.30;47.50;;;;;;2214144;64;20182;-64
2021/12/08 10:58:43;;;;;;;5.20;1.70;;;19.30;47.50;;;;;;2214077;64;20766;-64
2021/12/08 11:01:20;;;;;;;4.78;1.80;;;19.30;47.50;;;;;;2214092;64;20168;-64
2021/12/08 11:03:48;;;;;;;5.03;1.80;;;19.30;47.50;;;;;;2211131;64;20164;-64
2021/12/08 11:06:17;;;;;;;3.33;1.67;;;19.40;47.50;;;;;;2214011;64;20192;-64
2021/12/08 11:08:46;;;;;;;5.20;1.70;;;19.30;47.40;;;;;;2214003;64;20202;-64
2021/12/08 11:11:22;;;;;;;4.95;1.67;;;19.30;47.40;;;;;;2213930;64;20767;-65
2021/12/08 11:13:57;;;;;;;3.38;1.30;;;19.30;47.30;;;;;;2213988;64;20221;-65
2021/12/08 11:16:27;;;;;;;4.40;1.77;;;19.40;47.40;;;;;;2213985;64;20273;-64
2021/12/08 11:19:05;;;;;;;3.85;1.50;;;19.30;47.40;;;;;;2213921;64;20260;-65
2021/12/08 11:21:37;;;;;;;3.72;1.23;;;19.30;47.30;;;;;;2214022;64;20758;-64
2021/12/08 11:24:35;;;;;;;6.65;1.90;;;19.30;47.90;;;;;;2213850;64;20194;-64
2021/12/08 11:27:10;;;;;;;6.25;1.92;;;19.30;47.30;;;;;;2213870;64;20191;-64
2021/12/08 11:29:38;;;;;;;7.90;2.53;;;19.40;47.60;;;;;;2226324;63;20196;-65
2021/12/08 11:32:08;;;;;;;6.20;2.00;;;19.30;47.60;;;;;;2254159;63;20177;-64
2021/12/08 11:34:40;;;;;;;5.82;2.00;;;19.30;47.60;;;;;;2254191;63;20894;-64
2021/12/08 11:37:12;;;;;;;5.72;1.65;;;19.30;47.60;;;;;;2254041;63;20796;-64
2021/12/08 11:39:44;;;;;;;13.02;2.90;;;19.30;47.70;;;;;;2254157;63;20227;-64
2021/12/08 11:42:19;;;;;;;17.52;7.63;;;19.40;47.80;;;;;;2254072;63;20212;-64
2021/12/08 11:44:50;;;;;;;10.45;3.28;;;19.30;47.80;;;;;;2254061;63;20194;-64
2021/12/08 11:47:23;;;;;;;8.60;3.20;;;19.30;47.80;;;;;;2253934;63;20192;-64
2021/12/08 11:49:51;;;;;;;10.15;4.00;;;19.30;47.80;;;;;;2254102;63;20693;-64
2021/12/08 11:52:23;;;;;;;20.17;12.50;;;19.30;47.80;;;;;;2254075;63;20671;-64
2021/12/08 11:54:49;;;;;;;24.42;17.08;;;19.30;47.80;;;;;;2254039;63;20283;-64
2021/12/08 11:57:19;;;;;;;18.45;10.73;;;19.30;47.90;;;;;;2253495;63;20156;-65
2021/12/08 12:00:03;;;;;;;26.10;10.40;;;19.30;47.90;;;;;;2253949;63;20699;-64
2021/12/08 12:02:46;;;;;;;20.25;10.18;;;19.40;48.10;;;;;;2253961;63;20228;-65
2021/12/08 12:05:18;;;;;;;18.77;8.15;;;19.40;48.30;;;;;;2253990;63;20615;-65
2021/12/08 12:07:46;;;;;;;12.75;7.55;;;19.40;48.50;;;;;;2253992;63;20317;-64
2021/12/08 12:10:15;;;;;;;14.10;7.07;;;19.40;48.50;;;;;;2253957;63;20180;-64
2021/12/08 12:12:41;;;;;;;17.92;6.68;;;19.40;48.60;;;;;;2253952;63;20172;-64
2021/12/08 12:15:14;;;;;;;14.38;5.88;;;19.40;48.70;;;;;;2253961;63;20194;-63
2021/12/08 12:17:41;;;;;;;10.93;6.40;;;19.40;48.70;;;;;;2253894;63;20198;-63
2021/12/08 12:20:21;;;;;;;10.82;5.85;;;19.40;48.70;;;;;;2253907;63;20164;-63
2021/12/08 12:22:56;;;;;;;11.85;6.03;;;19.40;48.80;;;;;;2253796;63;20357;-63
2021/12/08 12:25:56;;;;;;;12.90;5.63;;;19.40;48.80;;;;;;2253924;63;20180;-63
2021/12/08 12:28:56;;;;;;;11.65;5.80;;;19.40;48.80;;;;;;2253859;63;20176;-63
2021/12/08 12:31:51;;;;;;;12.48;5.28;;;19.40;48.80;;;;;;2253861;63;20313;-63
2021/12/08 12:34:29;;;;;;;14.18;5.65;;;19.40;48.80;;;;;;2253849;63;20267;-63
2021/12/08 12:36:56;;;;;;;11.18;5.25;;;19.40;48.80;;;;;;2253760;63;20186;-63
2021/12/08 12:39:29;;;;;;;14.27;5.43;;;19.40;48.80;;;;;;2253751;63;20202;-63
2021/12/08 12:42:13;;;;;;;10.63;4.70;;;19.40;48.80;;;;;;2253707;63;20197;-64
2021/12/08 12:44:45;;;;;;;10.77;4.47;;;19.40;48.80;;;;;;2253734;63;20181;-64
2021/12/08 12:47:24;;;;;;;15.00;4.93;;;19.40;48.80;;;;;;2253626;63;20664;-64
2021/12/08 12:50:26;;;;;;;10.40;4.25;;;19.40;48.80;;;;;;2253762;63;20289;-64
2021/12/08 12:52:59;;;;;;;13.65;4.47;;;19.30;48.80;;;;;;2253743;63;20330;-63
2021/12/08 12:55:28;;;;;;;11.05;4.32;;;19.40;49.00;;;;;;2253710;63;20855;-64
2021/12/08 12:58:05;;;;;;;10.02;3.90;;;19.30;49.00;;;;;;2253768;63;20279;-64
2021/12/08 13:00:40;;;;;;;7.82;4.22;;;19.40;49.00;;;;;;2253667;63;20643;-64
2021/12/08 13:03:07;;;;;;;13.90;4.22;;;19.40;49.00;;;;;;2253705;63;20172;-64
2021/12/08 13:05:50;;;;;;;9.80;3.92;;;19.30;49.00;;;;;;2253411;63;20757;-64
2021/12/08 13:08:37;;;;;;;10.35;3.90;;;19.40;49.70;;;;;;2258190;63;20185;-64
2021/12/08 13:11:11;;;;;;;9.57;3.78;;;19.30;48.90;;;;;;2262417;63;20294;-64
2021/12/08 13:13:53;;;;;;;10.48;3.83;;;19.40;49.10;;;;;;2262714;63;20198;-64
2021/12/08 13:16:27;;;;;;;11.15;4.03;;;19.40;49.10;;;;;;2262921;63;20313;-64
2021/12/08 13:19:01;;;;;;;7.30;3.65;;;19.40;49.10;;;;;;2262933;63;20328;-64
2021/12/08 13:22:02;;;;;;;10.82;3.95;;;19.30;49.10;;;;;;2262971;63;20297;-64
2021/12/08 13:24:42;;;;;;;6.53;3.40;;;19.40;49.00;;;;;;2222374;64;20230;-65
2021/12/08 13:27:14;;;;;;;9.30;3.28;;;19.40;49.00;;;;;;2222257;64;20357;-65
2021/12/08 13:29:45;;;;;;;9.45;3.72;;;19.30;49.10;;;;;;2222311;64;20163;-64
2021/12/08 13:32:13;;;;;;;8.55;3.42;;;19.30;49.00;;;;;;2222218;64;20163;-64
2021/12/08 13:34:45;;;;;;;8.45;3.50;;;19.30;49.60;;;;;;2222325;64;20251;-65
2021/12/08 13:37:23;;;;;;;8.10;3.08;;;19.30;49.00;;;;;;2222247;64;20642;-64
2021/12/08 13:39:52;;;;;;;7.72;3.25;;;19.30;49.00;;;;;;2222091;64;20686;-65
2021/12/08 13:42:28;;;;;;;8.90;3.53;;;19.30;49.00;;;;;;2222252;64;20246;-64
2021/12/08 13:44:58;;;;;;;11.80;3.58;;;19.30;49.00;;;;;;2222214;64;20320;-64
2021/12/08 13:47:35;;;;;;;7.80;3.30;;;19.30;49.00;;;;;;2220860;64;20652;-64
2021/12/08 13:50:11;;;;;;;8.13;3.47;;;19.30;49.00;;;;;;2219265;64;20203;-64
2021/12/08 13:52:43;;;;;;;14.02;4.07;;;19.40;49.00;;;;;;2221603;64;20201;-65
2021/12/08 13:55:09;;;;;;;7.88;3.25;;;19.40;49.00;;;;;;2221772;64;20227;-64